Aérodrome :
LOGIN :

S'inscrire | Disclaimer

   EN    FR    IT 

 










Légende :    VFR   VFR Marginal   IFR   IFR Intensif   IFR Très Intensif
Visi : 
Plafond : 
>= 8 km
>= 3000ft
5 à 8 km
1000 à 3000 ft
1500m à 5 km
500 à 1000 ft
800 à 1500m
200 à 500 ft
< 800m
< 200 ft
Symboles :   Orages  Brouillard  Fortes neiges  Fortes précipitations  Vent > 20 kt
SIGMETs :   Divers  Orages  Givrage  Turbulence  Onde Orograph.  Cendres Volcan.







- Altitude de l'aérodrome : 392 ft
- Code IATA : CDG
- Voir les cartes d'approche


LFPG - Paris-Aeroport Charles De Gaulle

DERNIER METAR :
  • 210430Z 04007KT 9999 FEW018 BKN031 05/04 Q1014 NOSIG

METARs EXPIRÉS :
  • 210400Z 36003KT 9999 FEW018 BKN028 06/04 Q1014 NOSIG
  • 210330Z 33005KT 9999 FEW012 BKN028 06/04 Q1013 NOSIG
  • 210300Z 34007KT 9999 FEW012 BKN026 06/04 Q1013 NOSIG
  • 210230Z 34010KT 9999 SCT016 BKN025 06/04 Q1012 NOSIG
  • 210200Z 33011KT 9999 SCT018 BKN028 06/04 Q1012 NOSIG

TAF TAF LFPG
Valide du 21 à 00h jusqu'au 22 à 06h UTC


202300Z 2100/2206 32012KT 9999 SCT015 BKN025
TEMPO 2105/2110 VRB03KT
BECMG 2108/2110 BKN007
BECMG 2110/2112 13005KT
TEMPO 2110/2121 3000 RA BKN003
BECMG 2118/2120 19010KT
PROB30
TEMPO 2119/2121 1500 -RADZ BKN002
BECMG 2202/2204 26015G25KT
TEMPO 2203/2206 BKN005 TX12/2201Z TN04/2107Z
ATIS : +33 1 48 62 10 92
Pas de NOTAMs connus pour ce terrain.



MET'MAP, la Météo Aéronautique d'un coup d'oeil ! - Copyright ORBIFLY Décembre 2007 - Disclaimer

ORBIFLY MET'MAP TEAM :

Programmation & Développement : Alexandra Zaïnal
Conception & Développement : Baudouin d'Aumeries
Co-Programmation & Développement : Marc-Olivier Méhu
Soutien technique & logistique : Manuel Goepfert

Contact : metmap@orbifly.com




SOURCES & CREDITS :

   NOAA